sensor_id;sensor_type;location;lat;lon;timestamp;P1;P2;P0
73517;PMS5003;61766;60.318;25.044;2022-12-13T00:01:41;7;6;
73517;PMS5003;61766;60.318;25.044;2022-12-13T00:04:06;8;7;
73517;PMS5003;61766;60.318;25.044;2022-12-13T00:06:32;5;5;
73517;PMS5003;61766;60.318;25.044;2022-12-13T00:08:57;10;8;
73517;PMS5003;61766;60.318;25.044;2022-12-13T00:11:23;7;6;
73517;PMS5003;61766;60.318;25.044;2022-12-13T00:13:49;10;10;
73517;PMS5003;61766;60.318;25.044;2022-12-13T00:16:15;8;7;
73517;PMS5003;61766;60.318;25.044;2022-12-13T00:18:39;7;6;
73517;PMS5003;61766;60.318;25.044;2022-12-13T00:21:05;10;8;
73517;PMS5003;61766;60.318;25.044;2022-12-13T00:23:30;12;12;
73517;PMS5003;61766;60.318;25.044;2022-12-13T00:26:00;8;6;
73517;PMS5003;61766;60.318;25.044;2022-12-13T00:28:21;6;6;
73517;PMS5003;61766;60.318;25.044;2022-12-13T00:30:46;8;7;
73517;PMS5003;61766;60.318;25.044;2022-12-13T00:33:11;6;6;
73517;PMS5003;61766;60.318;25.044;2022-12-13T00:35:38;11;8;
73517;PMS5003;61766;60.318;25.044;2022-12-13T00:38:02;11;8;
73517;PMS5003;61766;60.318;25.044;2022-12-13T00:40:28;7;6;
73517;PMS5003;61766;60.318;25.044;2022-12-13T00:42:53;10;8;
73517;PMS5003;61766;60.318;25.044;2022-12-13T00:45:18;11;11;
73517;PMS5003;61766;60.318;25.044;2022-12-13T00:47:44;6;6;
73517;PMS5003;61766;60.318;25.044;2022-12-13T00:50:09;6;6;
73517;PMS5003;61766;60.318;25.044;2022-12-13T00:52:35;7;6;
73517;PMS5003;61766;60.318;25.044;2022-12-13T00:55:00;6;6;
73517;PMS5003;61766;60.318;25.044;2022-12-13T00:57:26;10;8;
73517;PMS5003;61766;60.318;25.044;2022-12-13T00:59:51;8;7;
73517;PMS5003;61766;60.318;25.044;2022-12-13T01:02:17;7;7;
73517;PMS5003;61766;60.318;25.044;2022-12-13T01:04:42;7;7;
73517;PMS5003;61766;60.318;25.044;2022-12-13T01:07:08;7;7;
73517;PMS5003;61766;60.318;25.044;2022-12-13T01:09:33;6;6;
73517;PMS5003;61766;60.318;25.044;2022-12-13T01:11:59;8;7;
73517;PMS5003;61766;60.318;25.044;2022-12-13T01:14:25;8;8;
73517;PMS5003;61766;60.318;25.044;2022-12-13T01:16:50;6;5;
73517;PMS5003;61766;60.318;25.044;2022-12-13T01:19:15;7;7;
73517;PMS5003;61766;60.318;25.044;2022-12-13T01:21:40;10;10;
73517;PMS5003;61766;60.318;25.044;2022-12-13T01:24:06;8;8;
73517;PMS5003;61766;60.318;25.044;2022-12-13T01:26:32;6;6;
73517;PMS5003;61766;60.318;25.044;2022-12-13T01:28:57;10;8;
73517;PMS5003;61766;60.318;25.044;2022-12-13T01:31:22;7;7;
73517;PMS5003;61766;60.318;25.044;2022-12-13T01:33:48;5;5;
73517;PMS5003;61766;60.318;25.044;2022-12-13T01:36:14;10;10;
73517;PMS5003;61766;60.318;25.044;2022-12-13T01:38:39;7;7;
73517;PMS5003;61766;60.318;25.044;2022-12-13T01:41:04;8;7;
73517;PMS5003;61766;60.318;25.044;2022-12-13T01:43:48;10;6;
73517;PMS5003;61766;60.318;25.044;2022-12-13T01:45:55;8;7;
73517;PMS5003;61766;60.318;25.044;2022-12-13T01:48:21;5;5;
73517;PMS5003;61766;60.318;25.044;2022-12-13T01:50:46;8;8;
73517;PMS5003;61766;60.318;25.044;2022-12-13T01:53:12;5;5;
73517;PMS5003;61766;60.318;25.044;2022-12-13T01:55:36;5;5;
73517;PMS5003;61766;60.318;25.044;2022-12-13T01:58:02;6;6;
73517;PMS5003;61766;60.318;25.044;2022-12-13T02:00:27;8;7;
73517;PMS5003;61766;60.318;25.044;2022-12-13T02:02:53;7;7;
73517;PMS5003;61766;60.318;25.044;2022-12-13T02:05:20;8;7;
73517;PMS5003;61766;60.318;25.044;2022-12-13T02:07:43;7;6;
73517;PMS5003;61766;60.318;25.044;2022-12-13T02:10:09;10;8;
73517;PMS5003;61766;60.318;25.044;2022-12-13T02:12:35;12;8;
73517;PMS5003;61766;60.318;25.044;2022-12-13T02:15:01;7;7;
73517;PMS5003;61766;60.318;25.044;2022-12-13T02:17:26;10;8;
73517;PMS5003;61766;60.318;25.044;2022-12-13T02:22:22;8;7;
73517;PMS5003;61766;60.318;25.044;2022-12-13T02:24:46;7;6;
73517;PMS5003;61766;60.318;25.044;2022-12-13T02:27:12;6;6;
73517;PMS5003;61766;60.318;25.044;2022-12-13T02:29:40;7;7;
73517;PMS5003;61766;60.318;25.044;2022-12-13T02:31:59;8;6;
73517;PMS5003;61766;60.318;25.044;2022-12-13T02:34:24;12;8;
73517;PMS5003;61766;60.318;25.044;2022-12-13T02:36:52;8;8;
73517;PMS5003;61766;60.318;25.044;2022-12-13T02:39:16;8;8;
73517;PMS5003;61766;60.318;25.044;2022-12-13T02:41:41;7;7;
73517;PMS5003;61766;60.318;25.044;2022-12-13T02:44:07;12;10;
73517;PMS5003;61766;60.318;25.044;2022-12-13T02:46:32;11;10;
73517;PMS5003;61766;60.318;25.044;2022-12-13T02:48:56;10;8;
73517;PMS5003;61766;60.318;25.044;2022-12-13T02:51:22;7;7;
73517;PMS5003;61766;60.318;25.044;2022-12-13T02:53:47;5;5;
73517;PMS5003;61766;60.318;25.044;2022-12-13T02:56:12;8;6;
73517;PMS5003;61766;60.318;25.044;2022-12-13T02:58:39;8;7;
73517;PMS5003;61766;60.318;25.044;2022-12-13T03:01:08;8;7;
73517;PMS5003;61766;60.318;25.044;2022-12-13T03:03:31;8;8;
73517;PMS5003;61766;60.318;25.044;2022-12-13T03:05:56;11;10;
73517;PMS5003;61766;60.318;25.044;2022-12-13T03:08:21;10;10;
73517;PMS5003;61766;60.318;25.044;2022-12-13T03:10:47;6;6;
73517;PMS5003;61766;60.318;25.044;2022-12-13T03:13:11;7;7;
73517;PMS5003;61766;60.318;25.044;2022-12-13T03:15:37;6;6;
73517;PMS5003;61766;60.318;25.044;2022-12-13T03:18:02;10;8;
73517;PMS5003;61766;60.318;25.044;2022-12-13T03:20:27;7;7;
73517;PMS5003;61766;60.318;25.044;2022-12-13T03:22:53;10;8;
73517;PMS5003;61766;60.318;25.044;2022-12-13T03:25:18;8;8;
73517;PMS5003;61766;60.318;25.044;2022-12-13T03:27:43;5;5;
73517;PMS5003;61766;60.318;25.044;2022-12-13T03:30:09;7;7;
73517;PMS5003;61766;60.318;25.044;2022-12-13T03:32:34;7;7;
73517;PMS5003;61766;60.318;25.044;2022-12-13T03:34:59;5;5;
73517;PMS5003;61766;60.318;25.044;2022-12-13T03:37:24;11;10;
73517;PMS5003;61766;60.318;25.044;2022-12-13T03:39:50;7;7;
73517;PMS5003;61766;60.318;25.044;2022-12-13T03:42:15;8;8;
73517;PMS5003;61766;60.318;25.044;2022-12-13T03:44:41;10;8;
73517;PMS5003;61766;60.318;25.044;2022-12-13T03:47:06;11;10;
73517;PMS5003;61766;60.318;25.044;2022-12-13T03:49:32;10;10;
73517;PMS5003;61766;60.318;25.044;2022-12-13T03:51:57;10;7;
73517;PMS5003;61766;60.318;25.044;2022-12-13T03:54:23;7;7;
73517;PMS5003;61766;60.318;25.044;2022-12-13T03:56:48;11;11;
73517;PMS5003;61766;60.318;25.044;2022-12-13T03:59:14;10;8;
73517;PMS5003;61766;60.318;25.044;2022-12-13T04:01:41;6;6;
73517;PMS5003;61766;60.318;25.044;2022-12-13T04:04:05;8;7;
73517;PMS5003;61766;60.318;25.044;2022-12-13T04:06:30;6;6;
73517;PMS5003;61766;60.318;25.044;2022-12-13T04:08:56;8;7;
73517;PMS5003;61766;60.318;25.044;2022-12-13T04:11:21;12;10;
73517;PMS5003;61766;60.318;25.044;2022-12-13T04:13:47;6;5;
73517;PMS5003;61766;60.318;25.044;2022-12-13T04:16:12;6;6;
73517;PMS5003;61766;60.318;25.044;2022-12-13T04:18:38;7;7;
73517;PMS5003;61766;60.318;25.044;2022-12-13T04:21:03;10;7;
73517;PMS5003;61766;60.318;25.044;2022-12-13T04:23:28;7;7;
73517;PMS5003;61766;60.318;25.044;2022-12-13T04:25:54;8;7;
73517;PMS5003;61766;60.318;25.044;2022-12-13T04:28:19;10;10;
73517;PMS5003;61766;60.318;25.044;2022-12-13T04:30:45;7;7;
73517;PMS5003;61766;60.318;25.044;2022-12-13T04:33:10;8;7;
73517;PMS5003;61766;60.318;25.044;2022-12-13T04:35:36;10;8;
73517;PMS5003;61766;60.318;25.044;2022-12-13T04:38:01;8;8;
73517;PMS5003;61766;60.318;25.044;2022-12-13T04:40:27;7;7;
73517;PMS5003;61766;60.318;25.044;2022-12-13T04:42:52;10;7;
73517;PMS5003;61766;60.318;25.044;2022-12-13T04:45:17;8;8;
73517;PMS5003;61766;60.318;25.044;2022-12-13T04:47:43;7;7;
73517;PMS5003;61766;60.318;25.044;2022-12-13T04:50:08;6;6;
73517;PMS5003;61766;60.318;25.044;2022-12-13T04:52:34;10;10;
73517;PMS5003;61766;60.318;25.044;2022-12-13T04:54:59;8;8;
73517;PMS5003;61766;60.318;25.044;2022-12-13T04:57:24;8;8;
73517;PMS5003;61766;60.318;25.044;2022-12-13T04:59:50;7;7;
73517;PMS5003;61766;60.318;25.044;2022-12-13T05:02:15;6;6;
73517;PMS5003;61766;60.318;25.044;2022-12-13T05:04:41;10;10;
73517;PMS5003;61766;60.318;25.044;2022-12-13T05:07:06;8;7;
73517;PMS5003;61766;60.318;25.044;2022-12-13T05:09:32;7;7;
73517;PMS5003;61766;60.318;25.044;2022-12-13T05:11:57;12;12;
73517;PMS5003;61766;60.318;25.044;2022-12-13T05:14:23;10;8;
73517;PMS5003;61766;60.318;25.044;2022-12-13T05:16:48;7;6;
73517;PMS5003;61766;60.318;25.044;2022-12-13T05:19:14;6;6;
73517;PMS5003;61766;60.318;25.044;2022-12-13T05:21:39;7;6;
73517;PMS5003;61766;60.318;25.044;2022-12-13T05:24:06;11;10;
73517;PMS5003;61766;60.318;25.044;2022-12-13T05:26:30;7;7;
73517;PMS5003;61766;60.318;25.044;2022-12-13T05:28:56;11;10;
73517;PMS5003;61766;60.318;25.044;2022-12-13T05:31:21;8;7;
73517;PMS5003;61766;60.318;25.044;2022-12-13T05:33:46;7;7;
73517;PMS5003;61766;60.318;25.044;2022-12-13T05:36:12;10;10;
73517;PMS5003;61766;60.318;25.044;2022-12-13T05:38:37;6;6;
73517;PMS5003;61766;60.318;25.044;2022-12-13T05:41:02;11;11;
73517;PMS5003;61766;60.318;25.044;2022-12-13T05:43:28;7;7;
73517;PMS5003;61766;60.318;25.044;2022-12-13T05:45:53;10;10;
73517;PMS5003;61766;60.318;25.044;2022-12-13T05:48:19;12;8;
73517;PMS5003;61766;60.318;25.044;2022-12-13T05:50:44;11;8;
73517;PMS5003;61766;60.318;25.044;2022-12-13T05:53:09;11;8;
73517;PMS5003;61766;60.318;25.044;2022-12-13T05:55:35;8;7;
73517;PMS5003;61766;60.318;25.044;2022-12-13T05:58:00;8;8;
73517;PMS5003;61766;60.318;25.044;2022-12-13T06:00:26;10;8;
73517;PMS5003;61766;60.318;25.044;2022-12-13T06:02:51;7;7;
73517;PMS5003;61766;60.318;25.044;2022-12-13T06:05:17;8;7;
73517;PMS5003;61766;60.318;25.044;2022-12-13T06:07:42;7;7;
73517;PMS5003;61766;60.318;25.044;2022-12-13T06:10:08;8;8;
73517;PMS5003;61766;60.318;25.044;2022-12-13T06:12:33;13;9;
73517;PMS5003;61766;60.318;25.044;2022-12-13T06:14:58;11;11;
73517;PMS5003;61766;60.318;25.044;2022-12-13T06:17:24;7;7;
73517;PMS5003;61766;60.318;25.044;2022-12-13T06:19:49;12;12;
73517;PMS5003;61766;60.318;25.044;2022-12-13T06:22:15;10;10;
73517;PMS5003;61766;60.318;25.044;2022-12-13T06:24:40;10;10;
73517;PMS5003;61766;60.318;25.044;2022-12-13T06:27:05;9;9;
73517;PMS5003;61766;60.318;25.044;2022-12-13T06:29:31;13;12;
73517;PMS5003;61766;60.318;25.044;2022-12-13T06:31:57;7;7;
73517;PMS5003;61766;60.318;25.044;2022-12-13T06:34:22;11;8;
73517;PMS5003;61766;60.318;25.044;2022-12-13T06:36:47;9;9;
73517;PMS5003;61766;60.318;25.044;2022-12-13T06:39:13;12;9;
73517;PMS5003;61766;60.318;25.044;2022-12-13T06:41:38;11;11;
73517;PMS5003;61766;60.318;25.044;2022-12-13T06:44:04;13;12;
73517;PMS5003;61766;60.318;25.044;2022-12-13T06:46:29;11;8;
73517;PMS5003;61766;60.318;25.044;2022-12-13T06:48:55;12;9;
73517;PMS5003;61766;60.318;25.044;2022-12-13T06:51:20;15;13;
73517;PMS5003;61766;60.318;25.044;2022-12-13T06:53:46;8;8;
73517;PMS5003;61766;60.318;25.044;2022-12-13T06:56:12;14;12;
73517;PMS5003;61766;60.318;25.044;2022-12-13T06:58:36;9;9;
73517;PMS5003;61766;60.318;25.044;2022-12-13T07:01:02;10;10;
73517;PMS5003;61766;60.318;25.044;2022-12-13T07:03:28;15;13;
73517;PMS5003;61766;60.318;25.044;2022-12-13T07:05:53;15;13;
73517;PMS5003;61766;60.318;25.044;2022-12-13T07:08:18;13;12;
73517;PMS5003;61766;60.318;25.044;2022-12-13T07:10:43;10;10;
73517;PMS5003;61766;60.318;25.044;2022-12-13T07:13:08;12;11;
73517;PMS5003;61766;60.318;25.044;2022-12-13T07:15:34;8;8;
73517;PMS5003;61766;60.318;25.044;2022-12-13T07:17:59;13;12;
73517;PMS5003;61766;60.318;25.044;2022-12-13T07:20:24;12;12;
73517;PMS5003;61766;60.318;25.044;2022-12-13T07:22:50;16;13;
73517;PMS5003;61766;60.318;25.044;2022-12-13T07:25:16;14;12;
73517;PMS5003;61766;60.318;25.044;2022-12-13T07:27:41;13;11;
73517;PMS5003;61766;60.318;25.044;2022-12-13T07:30:07;11;11;
73517;PMS5003;61766;60.318;25.044;2022-12-13T07:32:32;12;11;
73517;PMS5003;61766;60.318;25.044;2022-12-13T07:34:57;14;13;
73517;PMS5003;61766;60.318;25.044;2022-12-13T07:37:23;7;7;
73517;PMS5003;61766;60.318;25.044;2022-12-13T07:39:48;9;8;
73517;PMS5003;61766;60.318;25.044;2022-12-13T07:42:14;9;9;
73517;PMS5003;61766;60.318;25.044;2022-12-13T07:44:39;12;12;
73517;PMS5003;61766;60.318;25.044;2022-12-13T07:47:04;13;13;
73517;PMS5003;61766;60.318;25.044;2022-12-13T07:49:30;16;14;
73517;PMS5003;61766;60.318;25.044;2022-12-13T07:51:55;14;13;
73517;PMS5003;61766;60.318;25.044;2022-12-13T07:54:20;13;13;
73517;PMS5003;61766;60.318;25.044;2022-12-13T07:56:46;16;16;
73517;PMS5003;61766;60.318;25.044;2022-12-13T07:59:11;12;9;
73517;PMS5003;61766;60.318;25.044;2022-12-13T08:01:36;8;7;
73517;PMS5003;61766;60.318;25.044;2022-12-13T08:04:02;8;7;
73517;PMS5003;61766;60.318;25.044;2022-12-13T08:06:27;12;12;
73517;PMS5003;61766;60.318;25.044;2022-12-13T08:08:54;12;9;
73517;PMS5003;61766;60.318;25.044;2022-12-13T08:11:18;12;11;
73517;PMS5003;61766;60.318;25.044;2022-12-13T08:13:43;11;11;
73517;PMS5003;61766;60.318;25.044;2022-12-13T08:16:09;16;14;
73517;PMS5003;61766;60.318;25.044;2022-12-13T08:18:34;12;11;
73517;PMS5003;61766;60.318;25.044;2022-12-13T08:21:00;11;9;
73517;PMS5003;61766;60.318;25.044;2022-12-13T08:23:25;11;9;
73517;PMS5003;61766;60.318;25.044;2022-12-13T08:25:51;11;11;
73517;PMS5003;61766;60.318;25.044;2022-12-13T08:28:16;9;9;
73517;PMS5003;61766;60.318;25.044;2022-12-13T08:30:41;12;11;
73517;PMS5003;61766;60.318;25.044;2022-12-13T08:33:06;12;11;
73517;PMS5003;61766;60.318;25.044;2022-12-13T08:35:32;11;9;
73517;PMS5003;61766;60.318;25.044;2022-12-13T08:37:57;13;12;
73517;PMS5003;61766;60.318;25.044;2022-12-13T08:40:23;15;12;
73517;PMS5003;61766;60.318;25.044;2022-12-13T08:42:48;12;12;
73517;PMS5003;61766;60.318;25.044;2022-12-13T08:45:13;9;9;
73517;PMS5003;61766;60.318;25.044;2022-12-13T08:47:39;12;12;
73517;PMS5003;61766;60.318;25.044;2022-12-13T08:50:05;9;9;
73517;PMS5003;61766;60.318;25.044;2022-12-13T08:52:29;13;12;
73517;PMS5003;61766;60.318;25.044;2022-12-13T08:54:55;18;13;
73517;PMS5003;61766;60.318;25.044;2022-12-13T08:57:20;15;14;
73517;PMS5003;61766;60.318;25.044;2022-12-13T08:59:46;13;12;
73517;PMS5003;61766;60.318;25.044;2022-12-13T09:02:12;17;14;
73517;PMS5003;61766;60.318;25.044;2022-12-13T09:04:37;17;17;
73517;PMS5003;61766;60.318;25.044;2022-12-13T09:07:02;17;13;
73517;PMS5003;61766;60.318;25.044;2022-12-13T09:09:27;10;10;
73517;PMS5003;61766;60.318;25.044;2022-12-13T09:11:52;13;12;
73517;PMS5003;61766;60.318;25.044;2022-12-13T09:14:17;15;15;
73517;PMS5003;61766;60.318;25.044;2022-12-13T09:16:43;14;10;
73517;PMS5003;61766;60.318;25.044;2022-12-13T09:19:08;9;9;
73517;PMS5003;61766;60.318;25.044;2022-12-13T09:21:33;10;10;
73517;PMS5003;61766;60.318;25.044;2022-12-13T09:23:59;16;15;
73517;PMS5003;61766;60.318;25.044;2022-12-13T09:26:24;10;10;
73517;PMS5003;61766;60.318;25.044;2022-12-13T09:28:49;13;12;
73517;PMS5003;61766;60.318;25.044;2022-12-13T09:31:15;14;14;
73517;PMS5003;61766;60.318;25.044;2022-12-13T09:33:40;16;15;
73517;PMS5003;61766;60.318;25.044;2022-12-13T09:36:06;12;10;
73517;PMS5003;61766;60.318;25.044;2022-12-13T09:38:31;15;14;
73517;PMS5003;61766;60.318;25.044;2022-12-13T09:40:56;12;10;
73517;PMS5003;61766;60.318;25.044;2022-12-13T09:43:22;14;13;
73517;PMS5003;61766;60.318;25.044;2022-12-13T09:45:46;15;13;
73517;PMS5003;61766;60.318;25.044;2022-12-13T09:48:13;20;18;
73517;PMS5003;61766;60.318;25.044;2022-12-13T09:50:37;18;14;
73517;PMS5003;61766;60.318;25.044;2022-12-13T09:53:03;12;10;
73517;PMS5003;61766;60.318;25.044;2022-12-13T09:55:30;13;12;
73517;PMS5003;61766;60.318;25.044;2022-12-13T09:57:53;13;13;
73517;PMS5003;61766;60.318;25.044;2022-12-13T10:00:20;13;12;
73517;PMS5003;61766;60.318;25.044;2022-12-13T10:02:45;13;13;
73517;PMS5003;61766;60.318;25.044;2022-12-13T10:05:13;15;13;
73517;PMS5003;61766;60.318;25.044;2022-12-13T10:07:34;13;13;
73517;PMS5003;61766;60.318;25.044;2022-12-13T10:10:00;12;10;
73517;PMS5003;61766;60.318;25.044;2022-12-13T10:12:25;13;12;
73517;PMS5003;61766;60.318;25.044;2022-12-13T10:14:52;14;14;
73517;PMS5003;61766;60.318;25.044;2022-12-13T10:17:16;18;14;
73517;PMS5003;61766;60.318;25.044;2022-12-13T10:19:42;15;14;
73517;PMS5003;61766;60.318;25.044;2022-12-13T10:22:10;19;18;
73517;PMS5003;61766;60.318;25.044;2022-12-13T10:26:58;14;14;
73517;PMS5003;61766;60.318;25.044;2022-12-13T10:29:23;19;19;
73517;PMS5003;61766;60.318;25.044;2022-12-13T10:31:49;16;15;
73517;PMS5003;61766;60.318;25.044;2022-12-13T10:34:16;15;14;
73517;PMS5003;61766;60.318;25.044;2022-12-13T10:36:39;16;16;
73517;PMS5003;61766;60.318;25.044;2022-12-13T10:39:04;17;14;
73517;PMS5003;61766;60.318;25.044;2022-12-13T10:41:31;14;14;
73517;PMS5003;61766;60.318;25.044;2022-12-13T10:46:20;15;13;
73517;PMS5003;61766;60.318;25.044;2022-12-13T10:48:46;19;16;
73517;PMS5003;61766;60.318;25.044;2022-12-13T10:51:12;21;20;
73517;PMS5003;61766;60.318;25.044;2022-12-13T10:53:38;16;16;
73517;PMS5003;61766;60.318;25.044;2022-12-13T10:56:02;14;13;
73517;PMS5003;61766;60.318;25.044;2022-12-13T10:58:33;15;14;
73517;PMS5003;61766;60.318;25.044;2022-12-13T11:00:53;17;14;
73517;PMS5003;61766;60.318;25.044;2022-12-13T11:05:43;14;14;
73517;PMS5003;61766;60.318;25.044;2022-12-13T11:08:12;16;15;
73517;PMS5003;61766;60.318;25.044;2022-12-13T11:10:33;17;16;
73517;PMS5003;61766;60.318;25.044;2022-12-13T11:12:59;15;14;
73517;PMS5003;61766;60.318;25.044;2022-12-13T11:15:24;17;16;
73517;PMS5003;61766;60.318;25.044;2022-12-13T11:17:50;16;14;
73517;PMS5003;61766;60.318;25.044;2022-12-13T11:20:15;15;14;
73517;PMS5003;61766;60.318;25.044;2022-12-13T11:22:40;13;13;
73517;PMS5003;61766;60.318;25.044;2022-12-13T11:25:06;16;15;
73517;PMS5003;61766;60.318;25.044;2022-12-13T11:27:38;11;11;
73517;PMS5003;61766;60.318;25.044;2022-12-13T11:30:00;17;16;
73517;PMS5003;61766;60.318;25.044;2022-12-13T11:32:24;15;11;
73517;PMS5003;61766;60.318;25.044;2022-12-13T11:34:49;17;15;
73517;PMS5003;61766;60.318;25.044;2022-12-13T11:37:15;18;15;
73517;PMS5003;61766;60.318;25.044;2022-12-13T11:39:38;28;26;
73517;PMS5003;61766;60.318;25.044;2022-12-13T11:42:04;15;15;
73517;PMS5003;61766;60.318;25.044;2022-12-13T11:44:31;18;18;
73517;PMS5003;61766;60.318;25.044;2022-12-13T11:46:54;18;17;
73517;PMS5003;61766;60.318;25.044;2022-12-13T11:49:20;22;17;
73517;PMS5003;61766;60.318;25.044;2022-12-13T11:51:45;22;21;
73517;PMS5003;61766;60.318;25.044;2022-12-13T11:54:10;15;15;
73517;PMS5003;61766;60.318;25.044;2022-12-13T11:56:34;15;14;
73517;PMS5003;61766;60.318;25.044;2022-12-13T11:59:00;18;17;
73517;PMS5003;61766;60.318;25.044;2022-12-13T12:01:25;14;14;
73517;PMS5003;61766;60.318;25.044;2022-12-13T12:03:50;17;16;
73517;PMS5003;61766;60.318;25.044;2022-12-13T12:06:16;21;20;
73517;PMS5003;61766;60.318;25.044;2022-12-13T12:08:41;17;16;
73517;PMS5003;61766;60.318;25.044;2022-12-13T12:11:08;17;16;
73517;PMS5003;61766;60.318;25.044;2022-12-13T12:13:33;21;17;
73517;PMS5003;61766;60.318;25.044;2022-12-13T12:15:58;15;14;
73517;PMS5003;61766;60.318;25.044;2022-12-13T12:18:21;23;21;
73517;PMS5003;61766;60.318;25.044;2022-12-13T12:20:51;28;22;
73517;PMS5003;61766;60.318;25.044;2022-12-13T12:23:13;18;18;
73517;PMS5003;61766;60.318;25.044;2022-12-13T12:25:37;21;16;
73517;PMS5003;61766;60.318;25.044;2022-12-13T12:28:03;17;16;
73517;PMS5003;61766;60.318;25.044;2022-12-13T12:30:31;20;20;
73517;PMS5003;61766;60.318;25.044;2022-12-13T12:32:55;23;22;
73517;PMS5003;61766;60.318;25.044;2022-12-13T12:35:25;28;27;
73517;PMS5003;61766;60.318;25.044;2022-12-13T12:37:46;18;16;
73517;PMS5003;61766;60.318;25.044;2022-12-13T12:42:39;23;22;
73517;PMS5003;61766;60.318;25.044;2022-12-13T12:45:03;17;16;
73517;PMS5003;61766;60.318;25.044;2022-12-13T12:47:29;23;23;
73517;PMS5003;61766;60.318;25.044;2022-12-13T12:52:18;30;29;
73517;PMS5003;61766;60.318;25.044;2022-12-13T12:54:42;30;28;
73517;PMS5003;61766;60.318;25.044;2022-12-13T12:57:08;24;24;
73517;PMS5003;61766;60.318;25.044;2022-12-13T12:59:33;28;23;
73517;PMS5003;61766;60.318;25.044;2022-12-13T13:01:59;25;21;
73517;PMS5003;61766;60.318;25.044;2022-12-13T13:04:24;22;21;
73517;PMS5003;61766;60.318;25.044;2022-12-13T13:06:48;31;29;
73517;PMS5003;61766;60.318;25.044;2022-12-13T13:09:12;27;25;
73517;PMS5003;61766;60.318;25.044;2022-12-13T13:11:38;57;55;
73517;PMS5003;61766;60.318;25.044;2022-12-13T13:14:04;64;62;
73517;PMS5003;61766;60.318;25.044;2022-12-13T13:16:31;32;31;
73517;PMS5003;61766;60.318;25.044;2022-12-13T13:18:55;38;36;
73517;PMS5003;61766;60.318;25.044;2022-12-13T13:21:24;53;48;
73517;PMS5003;61766;60.318;25.044;2022-12-13T13:23:46;26;26;
73517;PMS5003;61766;60.318;25.044;2022-12-13T13:26:11;23;21;
73517;PMS5003;61766;60.318;25.044;2022-12-13T13:28:37;24;24;
73517;PMS5003;61766;60.318;25.044;2022-12-13T13:31:03;24;23;
73517;PMS5003;61766;60.318;25.044;2022-12-13T13:35:53;18;17;
73517;PMS5003;61766;60.318;25.044;2022-12-13T13:38:46;18;17;
73517;PMS5003;61766;60.318;25.044;2022-12-13T13:40:43;20;18;
73517;PMS5003;61766;60.318;25.044;2022-12-13T13:43:13;18;17;
73517;PMS5003;61766;60.318;25.044;2022-12-13T13:48:10;25;20;
73517;PMS5003;61766;60.318;25.044;2022-12-13T13:50:36;15;15;
73517;PMS5003;61766;60.318;25.044;2022-12-13T13:52:54;23;23;
73517;PMS5003;61766;60.318;25.044;2022-12-13T13:55:21;22;21;
73517;PMS5003;61766;60.318;25.044;2022-12-13T13:57:46;21;21;
73517;PMS5003;61766;60.318;25.044;2022-12-13T14:09:49;21;20;
73517;PMS5003;61766;60.318;25.044;2022-12-13T14:17:13;18;16;
73517;PMS5003;61766;60.318;25.044;2022-12-13T14:21:58;18;18;
73517;PMS5003;61766;60.318;25.044;2022-12-13T14:24:22;21;21;
73517;PMS5003;61766;60.318;25.044;2022-12-13T14:26:49;22;20;
73517;PMS5003;61766;60.318;25.044;2022-12-13T14:29:10;24;24;
73517;PMS5003;61766;60.318;25.044;2022-12-13T14:31:37;17;17;
73517;PMS5003;61766;60.318;25.044;2022-12-13T14:34:01;17;15;
73517;PMS5003;61766;60.318;25.044;2022-12-13T14:36:26;22;22;
73517;PMS5003;61766;60.318;25.044;2022-12-13T14:41:17;26;23;
73517;PMS5003;61766;60.318;25.044;2022-12-13T14:43:42;26;22;
73517;PMS5003;61766;60.318;25.044;2022-12-13T14:46:09;41;37;
73517;PMS5003;61766;60.318;25.044;2022-12-13T14:48:34;31;30;
73517;PMS5003;61766;60.318;25.044;2022-12-13T14:50:59;33;29;
73517;PMS5003;61766;60.318;25.044;2022-12-13T14:53:25;27;26;
73517;PMS5003;61766;60.318;25.044;2022-12-13T14:58:16;41;31;
73517;PMS5003;61766;60.318;25.044;2022-12-13T15:00:41;45;44;
73517;PMS5003;61766;60.318;25.044;2022-12-13T15:03:06;64;58;
73517;PMS5003;61766;60.318;25.044;2022-12-13T15:05:33;40;36;
73517;PMS5003;61766;60.318;25.044;2022-12-13T15:07:58;40;35;
73517;PMS5003;61766;60.318;25.044;2022-12-13T15:10:24;35;32;
73517;PMS5003;61766;60.318;25.044;2022-12-13T15:12:49;32;32;
73517;PMS5003;61766;60.318;25.044;2022-12-13T15:15:17;27;26;
73517;PMS5003;61766;60.318;25.044;2022-12-13T15:17:40;29;22;
73517;PMS5003;61766;60.318;25.044;2022-12-13T15:22:30;28;22;
73517;PMS5003;61766;60.318;25.044;2022-12-13T15:24:56;23;22;
73517;PMS5003;61766;60.318;25.044;2022-12-13T15:27:21;30;26;
73517;PMS5003;61766;60.318;25.044;2022-12-13T15:29:47;19;19;
73517;PMS5003;61766;60.318;25.044;2022-12-13T15:32:13;19;18;
73517;PMS5003;61766;60.318;25.044;2022-12-13T15:34:38;30;30;
73517;PMS5003;61766;60.318;25.044;2022-12-13T15:37:04;23;23;
73517;PMS5003;61766;60.318;25.044;2022-12-13T15:39:29;36;33;
73517;PMS5003;61766;60.318;25.044;2022-12-13T15:41:54;23;21;
73517;PMS5003;61766;60.318;25.044;2022-12-13T15:44:21;34;32;
73517;PMS5003;61766;60.318;25.044;2022-12-13T15:46:45;27;26;
73517;PMS5003;61766;60.318;25.044;2022-12-13T15:49:19;31;28;
73517;PMS5003;61766;60.318;25.044;2022-12-13T15:54:03;30;28;
73517;PMS5003;61766;60.318;25.044;2022-12-13T15:56:29;32;28;
73517;PMS5003;61766;60.318;25.044;2022-12-13T15:58:52;34;28;
73517;PMS5003;61766;60.318;25.044;2022-12-13T16:03:43;27;23;
73517;PMS5003;61766;60.318;25.044;2022-12-13T16:06:08;29;25;
73517;PMS5003;61766;60.318;25.044;2022-12-13T16:08:35;22;22;
73517;PMS5003;61766;60.318;25.044;2022-12-13T16:10:59;24;24;
73517;PMS5003;61766;60.318;25.044;2022-12-13T16:13:25;25;24;
73517;PMS5003;61766;60.318;25.044;2022-12-13T16:15:50;33;30;
73517;PMS5003;61766;60.318;25.044;2022-12-13T16:18:18;32;28;
73517;PMS5003;61766;60.318;25.044;2022-12-13T16:20:40;24;20;
73517;PMS5003;61766;60.318;25.044;2022-12-13T16:23:05;20;19;
73517;PMS5003;61766;60.318;25.044;2022-12-13T16:25:31;20;19;
73517;PMS5003;61766;60.318;25.044;2022-12-13T16:27:56;19;18;
73517;PMS5003;61766;60.318;25.044;2022-12-13T16:30:22;20;19;
73517;PMS5003;61766;60.318;25.044;2022-12-13T16:32:47;22;22;
73517;PMS5003;61766;60.318;25.044;2022-12-13T16:35:12;24;22;
73517;PMS5003;61766;60.318;25.044;2022-12-13T16:37:38;35;34;
73517;PMS5003;61766;60.318;25.044;2022-12-13T16:42:30;22;18;
73517;PMS5003;61766;60.318;25.044;2022-12-13T16:44:54;24;23;
73517;PMS5003;61766;60.318;25.044;2022-12-13T16:47:20;23;19;
73517;PMS5003;61766;60.318;25.044;2022-12-13T16:49:45;20;19;